Time;durP1;ratioP1;P1;durP2;ratioP2;P2;SDS_P1;SDS_P2;PMS_P1;PMS_P2;Temp;Humidity;BMP_temperature;BMP_pressure;BME280_temperature;BME280_humidity;BME280_pressure;Samples;Min_cycle;Max_cycle;Signal;HPM_P1;HPM_P2
2021/12/10 00:00:36;;;;;;;48.83;27.88;;;4.90;99.90;;;;;;5003097;28;20041;-81
2021/12/10 00:03:05;;;;;;;50.40;28.77;;;4.90;99.90;;;;;;5008320;28;20040;-81
2021/12/10 00:05:37;;;;;;;50.40;28.20;;;5.20;99.90;;;;;;5019251;28;20049;-83
2021/12/10 00:08:06;;;;;;;53.45;29.58;;;4.90;99.90;;;;;;5006332;28;20055;-81
2021/12/10 00:10:36;;;;;;;61.13;30.00;;;5.40;99.90;;;;;;5023141;28;20029;-81
2021/12/10 00:13:03;;;;;;;59.67;31.10;;;4.90;99.90;;;;;;4999905;28;20049;-81
2021/12/10 00:15:31;;;;;;;59.85;30.40;;;5.10;99.90;;;;;;5005755;28;20041;-81
2021/12/10 00:17:59;;;;;;;52.25;28.58;;;4.90;99.90;;;;;;5003720;28;20075;-81
2021/12/10 00:20:27;;;;;;;52.17;28.85;;;5.40;99.90;;;;;;5003230;28;20130;-82
2021/12/10 00:22:58;;;;;;;51.90;29.05;;;5.40;99.90;;;;;;4992666;28;20626;-81
2021/12/10 00:25:38;;;;;;;49.47;28.25;;;5.00;99.90;;;;;;5017168;28;20465;-81
2021/12/10 00:28:14;;;;;;;52.05;26.92;;;5.30;99.90;;;;;;5018253;28;20341;-81
2021/12/10 00:30:55;;;;;;;52.15;26.70;;;5.10;99.90;;;;;;5022731;28;20045;-81
2021/12/10 00:33:24;;;;;;;51.42;26.77;;;4.90;99.90;;;;;;5001806;28;20048;-81
2021/12/10 00:35:52;;;;;;;49.72;27.35;;;5.00;99.90;;;;;;4974164;28;20057;-81
2021/12/10 00:38:20;;;;;;;53.95;26.80;;;4.90;99.90;;;;;;4991023;28;20109;-81
2021/12/10 00:40:45;;;;;;;52.22;27.15;;;5.30;99.90;;;;;;5022958;28;20757;-81
2021/12/10 00:43:11;;;;;;;54.05;27.35;;;4.90;99.90;;;;;;5002918;28;20128;-81
2021/12/10 00:45:37;;;;;;;56.20;27.17;;;4.90;99.90;;;;;;4985828;28;21706;-82
2021/12/10 00:48:04;;;;;;;52.80;27.08;;;4.90;99.90;;;;;;4972358;28;20048;-82
2021/12/10 00:50:34;;;;;;;47.70;26.45;;;4.90;99.90;;;;;;5018001;28;20049;-81
2021/12/10 00:53:00;;;;;;;53.28;27.77;;;4.90;99.90;;;;;;5008014;28;20098;-81
2021/12/10 00:55:27;;;;;;;55.13;26.85;;;5.20;99.90;;;;;;5006468;28;20041;-81
2021/12/10 00:57:54;;;;;;;49.38;26.50;;;5.00;99.90;;;;;;5001683;28;20068;-82
2021/12/10 01:00:26;;;;;;;62.00;28.42;;;4.90;99.90;;;;;;5041851;22;20021;-56
2021/12/10 01:02:52;;;;;;;45.88;25.25;;;4.90;99.90;;;;;;4962650;28;20038;-57
2021/12/10 01:05:19;;;;;;;49.65;25.27;;;4.90;99.90;;;;;;4984246;28;20484;-57
2021/12/10 01:07:45;;;;;;;51.92;25.08;;;4.80;99.90;;;;;;4988348;28;20048;-57
2021/12/10 01:10:19;;;;;;;45.97;23.33;;;5.00;99.90;;;;;;4954484;28;20034;-55
2021/12/10 01:12:48;;;;;;;44.03;24.88;;;4.90;99.90;;;;;;4983016;28;20722;-55
2021/12/10 01:23:54;;;;;;;52.83;25.77;;;5.00;99.90;;;;;;5000872;28;20065;-55
2021/12/10 01:26:55;;;;;;;48.80;24.15;;;5.00;99.90;;;;;;4996091;28;20171;-55
2021/12/10 01:29:28;;;;;;;42.60;24.27;;;4.90;99.90;;;;;;4983431;28;20077;-55
2021/12/10 01:31:55;;;;;;;46.40;23.63;;;5.00;99.90;;;;;;5024180;28;20041;-54
2021/12/10 01:34:21;;;;;;;40.15;23.15;;;5.00;99.90;;;;;;4999540;28;20054;-54
2021/12/10 01:36:47;;;;;;;42.03;24.05;;;4.90;99.90;;;;;;4992959;28;20049;-55
2021/12/10 01:39:19;;;;;;;45.92;23.05;;;4.90;99.90;;;;;;4969343;28;20072;-55
2021/12/10 01:41:53;;;;;;;41.97;22.73;;;4.90;99.90;;;;;;4955024;28;20308;-55
2021/12/10 01:44:27;;;;;;;39.60;23.20;;;4.90;99.90;;;;;;4952996;28;20073;-53
2021/12/10 01:46:55;;;;;;;43.50;23.55;;;4.90;99.90;;;;;;4969369;28;20042;-54
2021/12/10 01:49:21;;;;;;;40.20;22.77;;;4.80;99.90;;;;;;4983642;28;20084;-55
2021/12/10 01:51:47;;;;;;;37.92;21.25;;;4.80;99.90;;;;;;4950170;28;20061;-55
2021/12/10 01:54:20;;;;;;;40.45;23.33;;;4.80;99.90;;;;;;4989537;28;20233;-54
2021/12/10 01:56:48;;;;;;;43.43;23.37;;;4.90;99.90;;;;;;4958999;28;20037;-54
2021/12/10 01:59:16;;;;;;;38.70;21.63;;;4.80;99.90;;;;;;4973202;28;20059;-54
2021/12/10 02:01:46;;;;;;;53.05;23.85;;;4.80;99.90;;;;;;4976683;28;20057;-55
2021/12/10 02:04:15;;;;;;;38.70;21.13;;;4.80;99.90;;;;;;4987155;28;20116;-55
2021/12/10 02:06:41;;;;;;;44.33;21.33;;;4.80;99.90;;;;;;4970242;28;20052;-56
2021/12/10 02:09:08;;;;;;;37.08;20.35;;;4.90;99.90;;;;;;4980739;28;20046;-52
2021/12/10 02:11:34;;;;;;;36.10;20.05;;;4.90;99.90;;;;;;5020058;28;20034;-50
2021/12/10 02:14:00;;;;;;;40.88;19.85;;;4.90;99.90;;;;;;4988533;28;20948;-53
2021/12/10 02:16:25;;;;;;;35.97;19.30;;;4.90;99.90;;;;;;5003959;28;20177;-52
2021/12/10 02:18:51;;;;;;;34.17;17.70;;;4.90;99.90;;;;;;4989036;28;20087;-56
2021/12/10 02:21:20;;;;;;;36.10;19.25;;;4.90;99.90;;;;;;4964645;28;20045;-55
2021/12/10 02:23:56;;;;;;;37.15;18.95;;;4.90;99.90;;;;;;5009740;28;20045;-54
2021/12/10 02:26:22;;;;;;;33.63;17.52;;;4.90;99.90;;;;;;4994275;28;20041;-53
2021/12/10 02:28:48;;;;;;;31.75;17.25;;;4.90;99.90;;;;;;5000731;28;20639;-53
2021/12/10 02:31:15;;;;;;;28.40;16.10;;;4.90;99.90;;;;;;4989480;28;20084;-55
2021/12/10 02:33:41;;;;;;;29.85;16.45;;;4.90;99.90;;;;;;4965726;28;20135;-54
2021/12/10 02:36:11;;;;;;;32.53;18.60;;;4.90;99.90;;;;;;4974214;28;20477;-54
2021/12/10 02:38:49;;;;;;;36.05;16.77;;;4.90;99.90;;;;;;4994186;28;20128;-55
2021/12/10 02:41:17;;;;;;;26.00;15.68;;;4.90;99.90;;;;;;4973791;28;20488;-55
2021/12/10 02:43:45;;;;;;;28.08;15.40;;;4.90;99.90;;;;;;4964393;28;20130;-54
2021/12/10 02:46:11;;;;;;;27.17;15.27;;;4.90;99.90;;;;;;4955443;28;20044;-54
2021/12/10 02:48:37;;;;;;;31.70;13.95;;;4.90;99.90;;;;;;4974016;28;20057;-54
2021/12/10 02:51:05;;;;;;;33.25;16.13;;;4.90;99.90;;;;;;5011095;28;20053;-54
2021/12/10 02:53:35;;;;;;;24.98;14.85;;;4.90;99.90;;;;;;4975149;28;21090;-54
2021/12/10 02:56:03;;;;;;;26.23;14.68;;;4.80;99.90;;;;;;4971499;28;20518;-55
2021/12/10 02:58:29;;;;;;;35.63;15.68;;;4.80;99.90;;;;;;4974072;28;20408;-55
2021/12/10 03:01:05;;;;;;;33.05;15.18;;;4.80;99.90;;;;;;4968686;28;20111;-55
2021/12/10 03:03:31;;;;;;;27.90;14.30;;;4.80;99.90;;;;;;4970004;28;20042;-55
2021/12/10 03:05:58;;;;;;;27.23;14.60;;;4.80;99.90;;;;;;4973952;28;20922;-56
2021/12/10 03:08:25;;;;;;;29.85;15.32;;;4.80;99.90;;;;;;4966874;28;20041;-55
2021/12/10 03:10:51;;;;;;;26.10;14.60;;;4.80;99.90;;;;;;4951370;28;20467;-56
2021/12/10 03:13:17;;;;;;;32.78;15.98;;;4.80;99.90;;;;;;4968547;28;20297;-56
2021/12/10 03:15:43;;;;;;;25.77;15.55;;;4.90;99.90;;;;;;4968150;28;20638;-54
2021/12/10 03:18:14;;;;;;;24.50;15.38;;;4.80;99.90;;;;;;4964794;28;20091;-56
2021/12/10 03:20:40;;;;;;;29.10;17.23;;;4.80;99.90;;;;;;4968319;28;20136;-56
2021/12/10 03:23:07;;;;;;;28.50;16.27;;;4.80;99.90;;;;;;4960223;28;21081;-56
2021/12/10 03:25:33;;;;;;;30.08;16.50;;;4.80;99.90;;;;;;4952113;28;20069;-55
2021/12/10 03:28:00;;;;;;;29.42;17.08;;;4.80;99.90;;;;;;4944143;28;20045;-54
2021/12/10 03:30:30;;;;;;;29.17;16.38;;;4.80;99.90;;;;;;4943354;28;20053;-56
2021/12/10 03:32:56;;;;;;;27.10;15.73;;;4.80;99.90;;;;;;4974086;28;20049;-54
2021/12/10 03:35:28;;;;;;;28.75;15.25;;;4.70;99.90;;;;;;4952648;28;21254;-53
2021/12/10 03:37:55;;;;;;;23.15;14.13;;;4.70;99.90;;;;;;4950760;28;20108;-54
2021/12/10 03:40:21;;;;;;;27.10;16.63;;;4.70;99.90;;;;;;4940634;28;20532;-55
2021/12/10 03:42:49;;;;;;;26.35;14.40;;;4.60;99.90;;;;;;4942720;28;20175;-56
2021/12/10 03:45:18;;;;;;;25.88;16.02;;;4.60;99.90;;;;;;4960550;28;20041;-56
2021/12/10 03:47:44;;;;;;;30.65;16.52;;;4.60;99.90;;;;;;4951418;28;20052;-55
2021/12/10 03:50:19;;;;;;;25.20;15.40;;;4.60;99.90;;;;;;4953151;28;20167;-55
2021/12/10 03:52:45;;;;;;;28.20;15.40;;;4.60;99.90;;;;;;4964054;28;20218;-56
2021/12/10 03:55:11;;;;;;;28.13;15.88;;;4.50;99.90;;;;;;4949008;28;20050;-56
2021/12/10 03:57:37;;;;;;;27.95;16.35;;;4.50;99.90;;;;;;4954669;28;20672;-56
2021/12/10 04:00:06;;;;;;;29.55;16.13;;;4.50;99.90;;;;;;4941508;28;20049;-55
2021/12/10 04:02:31;;;;;;;25.00;15.43;;;4.50;99.90;;;;;;4944265;28;20152;-56
2021/12/10 04:04:57;;;;;;;28.55;16.75;;;4.50;99.90;;;;;;4941387;28;20272;-53
2021/12/10 04:07:25;;;;;;;27.85;14.52;;;4.50;99.90;;;;;;4929331;28;20052;-53
2021/12/10 04:09:53;;;;;;;30.00;15.88;;;4.50;99.90;;;;;;4966560;28;22315;-53
2021/12/10 04:12:20;;;;;;;26.73;15.45;;;4.40;99.90;;;;;;4962640;28;20160;-56
2021/12/10 04:14:49;;;;;;;28.17;17.40;;;4.40;99.90;;;;;;4979085;28;20116;-55
2021/12/10 04:17:17;;;;;;;27.52;16.23;;;4.40;99.90;;;;;;4963047;28;20385;-56
2021/12/10 04:19:45;;;;;;;29.13;14.93;;;4.40;99.90;;;;;;4976601;28;20045;-55
2021/12/10 04:22:14;;;;;;;25.45;13.73;;;4.30;99.90;;;;;;4979604;28;20665;-55
2021/12/10 04:24:41;;;;;;;25.52;14.43;;;4.30;99.90;;;;;;4960084;28;20041;-55
2021/12/10 04:27:10;;;;;;;26.63;14.75;;;4.30;99.90;;;;;;4965297;28;20041;-55
2021/12/10 04:29:36;;;;;;;29.40;15.00;;;4.30;99.90;;;;;;4968930;28;20045;-56
2021/12/10 04:32:04;;;;;;;28.58;14.13;;;4.30;99.90;;;;;;4978456;28;20147;-54
2021/12/10 04:34:30;;;;;;;29.95;14.10;;;4.20;99.90;;;;;;5006482;28;20480;-54
2021/12/10 04:36:59;;;;;;;30.58;15.05;;;4.20;99.90;;;;;;4983945;28;20450;-54
2021/12/10 04:39:25;;;;;;;29.25;14.52;;;4.20;99.90;;;;;;4997715;28;20045;-56
2021/12/10 04:41:51;;;;;;;25.30;12.98;;;4.20;99.90;;;;;;4996676;28;20060;-56
2021/12/10 04:44:18;;;;;;;23.33;13.98;;;4.10;99.90;;;;;;5017669;28;20181;-56
2021/12/10 04:46:44;;;;;;;27.70;13.57;;;4.00;99.90;;;;;;4985450;28;20042;-57
2021/12/10 04:49:13;;;;;;;45.55;15.35;;;4.00;99.90;;;;;;4996484;28;20257;-55
2021/12/10 04:51:46;;;;;;;25.65;13.48;;;4.00;99.90;;;;;;4996074;28;20041;-54
2021/12/10 04:54:13;;;;;;;25.23;13.70;;;4.00;99.90;;;;;;5001163;28;20041;-57
2021/12/10 04:56:40;;;;;;;23.27;13.18;;;4.00;99.90;;;;;;4993141;28;20535;-56
2021/12/10 04:59:08;;;;;;;25.25;13.98;;;3.90;99.90;;;;;;4974531;28;20045;-57
2021/12/10 05:01:35;;;;;;;26.20;13.73;;;3.90;99.90;;;;;;4951502;28;20112;-55
2021/12/10 05:04:06;;;;;;;25.83;12.90;;;3.90;99.90;;;;;;4984843;28;20408;-55
2021/12/10 05:06:33;;;;;;;24.02;12.70;;;3.90;99.90;;;;;;4971000;28;20130;-55
2021/12/10 05:08:59;;;;;;;24.05;13.52;;;3.80;99.90;;;;;;5005335;28;20494;-57
2021/12/10 05:11:25;;;;;;;26.50;12.75;;;3.80;99.90;;;;;;4996265;28;20270;-57
2021/12/10 05:13:51;;;;;;;21.77;13.00;;;3.80;99.90;;;;;;4990689;28;20030;-55
2021/12/10 05:16:24;;;;;;;22.52;12.75;;;3.70;99.90;;;;;;5010627;28;20102;-53
2021/12/10 05:18:56;;;;;;;25.13;14.40;;;3.70;99.90;;;;;;5013908;28;20416;-56
2021/12/10 05:21:22;;;;;;;21.15;11.80;;;3.70;99.90;;;;;;4980645;28;20116;-55
2021/12/10 05:23:47;;;;;;;23.23;12.93;;;3.60;99.90;;;;;;5028626;28;20045;-55
2021/12/10 05:26:13;;;;;;;23.58;12.90;;;3.60;99.90;;;;;;4968747;28;20038;-55
2021/12/10 05:28:39;;;;;;;23.42;13.27;;;3.60;99.90;;;;;;5021329;28;20099;-55
2021/12/10 05:31:05;;;;;;;27.52;14.57;;;3.60;99.90;;;;;;4980455;28;20046;-55
2021/12/10 05:33:31;;;;;;;24.45;13.23;;;3.50;99.90;;;;;;5002701;28;20037;-56
2021/12/10 05:35:58;;;;;;;21.92;13.00;;;3.50;99.90;;;;;;4992115;28;20081;-54
2021/12/10 05:38:24;;;;;;;26.80;13.02;;;3.50;99.90;;;;;;4965960;28;20413;-55
2021/12/10 05:40:53;;;;;;;23.33;13.02;;;3.50;99.90;;;;;;4975999;28;21790;-56
2021/12/10 05:43:20;;;;;;;22.25;13.40;;;3.50;99.90;;;;;;4968528;28;20243;-55
2021/12/10 05:45:47;;;;;;;22.65;13.50;;;3.40;99.90;;;;;;4955170;28;20677;-56
2021/12/10 05:48:13;;;;;;;21.95;14.45;;;3.40;99.90;;;;;;4991130;28;20037;-56
2021/12/10 05:50:39;;;;;;;21.17;14.30;;;3.30;99.90;;;;;;4973708;28;20049;-57
2021/12/10 05:53:05;;;;;;;25.25;15.30;;;3.30;99.90;;;;;;4971658;28;20466;-56
2021/12/10 05:55:34;;;;;;;24.98;14.43;;;3.30;99.90;;;;;;4983414;28;20045;-57
2021/12/10 05:58:00;;;;;;;29.67;16.58;;;3.30;99.90;;;;;;4995051;28;20053;-57
2021/12/10 06:00:33;;;;;;;26.27;16.52;;;3.20;99.90;;;;;;4978104;28;20508;-55
2021/12/10 06:03:00;;;;;;;25.40;16.95;;;3.20;99.90;;;;;;4978669;28;20255;-54
2021/12/10 06:05:27;;;;;;;32.30;17.63;;;3.20;99.90;;;;;;4970241;28;21843;-55
2021/12/10 06:07:53;;;;;;;29.17;17.40;;;3.20;99.90;;;;;;4997648;28;20513;-55
2021/12/10 06:10:21;;;;;;;29.15;17.63;;;3.20;99.90;;;;;;4993393;28;20068;-55
2021/12/10 06:12:49;;;;;;;30.95;19.15;;;3.10;99.90;;;;;;4998500;28;20516;-54
2021/12/10 06:15:17;;;;;;;28.50;17.92;;;3.20;99.90;;;;;;4989023;28;20409;-56
2021/12/10 06:17:43;;;;;;;28.40;18.25;;;3.20;99.90;;;;;;4970166;28;20560;-55
2021/12/10 06:20:12;;;;;;;30.08;17.88;;;3.20;99.90;;;;;;4993492;28;20069;-55
2021/12/10 06:22:38;;;;;;;32.30;17.65;;;3.30;99.90;;;;;;4999052;28;20041;-55
2021/12/10 06:25:06;;;;;;;33.90;18.17;;;3.30;99.90;;;;;;5016947;28;20570;-56
2021/12/10 06:27:31;;;;;;;30.63;18.63;;;3.20;99.90;;;;;;4985896;28;20061;-56
2021/12/10 06:29:58;;;;;;;32.80;19.77;;;3.20;99.90;;;;;;4985608;28;20053;-56
2021/12/10 06:32:25;;;;;;;30.77;18.23;;;3.20;99.90;;;;;;4977172;28;20043;-54
2021/12/10 06:34:51;;;;;;;33.75;18.95;;;3.20;99.90;;;;;;5011201;28;20041;-55
2021/12/10 06:37:16;;;;;;;33.55;20.02;;;3.20;99.90;;;;;;4974576;28;20041;-55
2021/12/10 06:39:43;;;;;;;31.58;18.63;;;3.20;99.90;;;;;;4993963;28;21719;-55
2021/12/10 06:42:09;;;;;;;31.80;19.35;;;3.10;99.90;;;;;;4956673;28;21882;-57
2021/12/10 06:44:35;;;;;;;31.02;19.55;;;3.10;99.90;;;;;;4971908;28;20108;-54
2021/12/10 06:47:05;;;;;;;36.05;20.75;;;3.10;99.90;;;;;;4952680;28;20033;-56
2021/12/10 06:49:32;;;;;;;32.28;19.85;;;3.10;99.90;;;;;;4966261;28;20064;-51
2021/12/10 06:52:00;;;;;;;33.45;19.73;;;3.10;99.90;;;;;;4977654;28;20045;-54
2021/12/10 06:54:26;;;;;;;34.28;20.48;;;3.10;99.90;;;;;;4978565;28;20038;-54
2021/12/10 06:56:52;;;;;;;32.25;20.50;;;3.10;99.90;;;;;;4977152;28;20638;-53
2021/12/10 06:59:19;;;;;;;29.20;19.55;;;3.10;99.90;;;;;;4976403;28;20037;-52
2021/12/10 07:01:44;;;;;;;32.30;19.83;;;3.10;99.90;;;;;;5021773;23;20069;-79
2021/12/10 07:04:13;;;;;;;32.90;19.60;;;3.10;99.90;;;;;;5034252;28;20049;-81
2021/12/10 07:06:42;;;;;;;32.17;20.70;;;3.10;99.90;;;;;;5020120;28;20096;-80
2021/12/10 07:09:14;;;;;;;30.08;19.35;;;3.50;99.90;;;;;;5016795;28;20048;-81
2021/12/10 07:11:40;;;;;;;30.83;18.80;;;3.10;99.90;;;;;;5026594;28;20863;-81
2021/12/10 07:14:06;;;;;;;28.30;18.98;;;3.00;99.90;;;;;;4997417;28;20046;-79
2021/12/10 07:16:32;;;;;;;28.10;19.40;;;3.10;99.90;;;;;;4991716;28;20158;-80
2021/12/10 07:19:03;;;;;;;27.60;17.10;;;3.40;99.90;;;;;;5024815;28;20141;-80
2021/12/10 07:21:31;;;;;;;30.38;18.38;;;3.00;99.90;;;;;;5011892;28;20113;-80
2021/12/10 07:24:01;;;;;;;33.45;19.35;;;3.30;99.90;;;;;;5002910;28;20358;-81
2021/12/10 07:26:28;;;;;;;29.75;19.40;;;2.90;99.90;;;;;;4983877;28;20098;-78
2021/12/10 07:28:55;;;;;;;32.80;18.83;;;2.90;99.90;;;;;;5022414;28;20072;-80
2021/12/10 07:31:21;;;;;;;26.23;18.85;;;3.40;99.90;;;;;;5003988;28;20056;-81
2021/12/10 07:33:46;;;;;;;26.52;16.85;;;2.90;99.90;;;;;;4971507;28;20075;-81
2021/12/10 07:36:14;;;;;;;29.08;16.33;;;2.80;99.90;;;;;;4978360;28;20041;-81
2021/12/10 07:38:41;;;;;;;26.15;16.80;;;2.80;99.90;;;;;;4995299;28;20045;-80
2021/12/10 07:41:07;;;;;;;26.17;17.13;;;2.80;99.90;;;;;;4986633;28;20117;-84
2021/12/10 07:43:35;;;;;;;28.60;15.85;;;2.80;99.90;;;;;;4992299;28;20053;-80
2021/12/10 07:46:01;;;;;;;27.17;16.40;;;2.80;99.90;;;;;;4984330;28;20110;-80
2021/12/10 07:48:28;;;;;;;24.38;15.90;;;2.80;99.90;;;;;;5007970;28;20048;-81
2021/12/10 07:51:10;;;;;;;27.65;16.73;;;2.80;99.90;;;;;;4993245;28;20122;-81
2021/12/10 07:53:37;;;;;;;23.85;16.10;;;2.80;99.90;;;;;;4990522;28;20042;-80
2021/12/10 07:56:05;;;;;;;24.58;15.10;;;2.80;99.90;;;;;;4990756;28;20053;-80
2021/12/10 07:58:32;;;;;;;24.58;15.05;;;3.00;99.90;;;;;;4998479;28;20150;-81
2021/12/10 08:01:00;;;;;;;24.00;15.75;;;3.50;99.90;;;;;;5005425;28;20088;-81
2021/12/10 08:03:26;;;;;;;23.67;14.57;;;3.20;99.90;;;;;;5015348;28;20050;-78
2021/12/10 08:05:52;;;;;;;25.45;15.27;;;2.70;99.90;;;;;;4987194;28;20037;-79
2021/12/10 08:08:18;;;;;;;22.00;13.77;;;2.70;99.90;;;;;;4979525;28;20042;-80
2021/12/10 08:10:48;;;;;;;21.65;13.80;;;2.70;99.90;;;;;;4970869;28;21107;-80
2021/12/10 08:13:16;;;;;;;21.90;13.85;;;2.70;99.90;;;;;;4971047;28;20037;-81
2021/12/10 08:15:42;;;;;;;20.85;12.85;;;2.70;99.90;;;;;;4994680;28;20474;-80
2021/12/10 08:18:08;;;;;;;19.63;13.05;;;2.70;99.90;;;;;;4999300;28;20049;-82
2021/12/10 08:20:35;;;;;;;18.15;12.77;;;2.70;99.90;;;;;;4990256;28;20386;-80
2021/12/10 08:23:01;;;;;;;20.33;12.05;;;2.70;99.90;;;;;;4982364;28;20101;-81
2021/12/10 08:25:28;;;;;;;17.23;12.00;;;2.70;99.90;;;;;;4989078;28;20125;-82
2021/12/10 08:27:56;;;;;;;17.30;11.35;;;2.70;99.90;;;;;;4988240;28;20097;-80
2021/12/10 08:30:25;;;;;;;20.83;11.55;;;2.70;99.90;;;;;;4994909;28;20037;-81
2021/12/10 08:32:54;;;;;;;20.88;12.10;;;2.70;99.90;;;;;;4995620;28;20116;-80
2021/12/10 08:35:24;;;;;;;19.13;11.60;;;2.70;99.90;;;;;;4999804;28;20536;-81
2021/12/10 08:37:53;;;;;;;21.42;13.20;;;2.70;99.90;;;;;;4994259;28;20046;-81
2021/12/10 08:40:23;;;;;;;20.00;12.13;;;2.70;99.90;;;;;;5005732;28;20449;-81
2021/12/10 08:42:50;;;;;;;20.60;12.07;;;2.70;99.90;;;;;;5002264;28;20053;-80
2021/12/10 08:45:18;;;;;;;18.27;11.88;;;2.80;99.90;;;;;;5007137;28;20029;-80
2021/12/10 08:47:45;;;;;;;19.23;12.05;;;2.70;99.90;;;;;;4981780;28;20173;-81
2021/12/10 08:50:11;;;;;;;16.73;10.45;;;2.80;99.90;;;;;;4987711;28;20033;-81
2021/12/10 08:52:37;;;;;;;17.30;10.85;;;2.80;99.90;;;;;;5016069;28;20119;-80
2021/12/10 08:55:05;;;;;;;16.58;10.18;;;2.80;99.90;;;;;;5028476;28;20076;-78
2021/12/10 08:57:31;;;;;;;17.17;10.52;;;2.80;99.90;;;;;;5010978;28;20037;-79
2021/12/10 08:59:57;;;;;;;16.58;10.95;;;2.80;99.90;;;;;;5001027;28;20434;-80
2021/12/10 09:02:23;;;;;;;20.52;11.57;;;2.90;99.90;;;;;;4976398;28;20434;-81
2021/12/10 09:04:49;;;;;;;17.40;10.18;;;2.90;99.90;;;;;;5008442;28;20133;-80
2021/12/10 09:07:17;;;;;;;21.73;11.38;;;3.00;99.90;;;;;;4985035;28;20061;-81
2021/12/10 09:09:45;;;;;;;16.08;10.40;;;3.00;99.90;;;;;;5000353;28;20041;-80
2021/12/10 09:12:21;;;;;;;16.52;9.60;;;3.00;99.90;;;;;;4982062;28;20088;-80
2021/12/10 09:14:51;;;;;;;18.95;9.65;;;3.10;99.90;;;;;;5006410;28;20041;-80
2021/12/10 09:17:23;;;;;;;16.33;9.18;;;3.10;99.90;;;;;;5009421;28;20132;-80
2021/12/10 09:19:50;;;;;;;15.30;9.43;;;3.20;99.90;;;;;;5031119;28;20111;-80
2021/12/10 09:22:17;;;;;;;13.25;9.52;;;3.20;99.90;;;;;;5003751;28;20044;-81
2021/12/10 09:24:43;;;;;;;13.18;9.25;;;3.10;99.90;;;;;;5012938;28;20046;-80
2021/12/10 09:27:11;;;;;;;15.52;9.82;;;3.30;99.90;;;;;;4989021;28;20124;-80
2021/12/10 09:29:42;;;;;;;15.93;9.52;;;3.60;99.90;;;;;;5011102;28;20081;-80
2021/12/10 09:32:11;;;;;;;16.98;9.13;;;3.30;99.90;;;;;;5014232;28;20045;-81
2021/12/10 09:34:38;;;;;;;15.20;10.05;;;3.40;99.90;;;;;;4996500;28;20046;-80
2021/12/10 09:37:04;;;;;;;16.77;9.70;;;3.40;99.90;;;;;;5013263;28;20048;-80
2021/12/10 09:39:31;;;;;;;15.45;8.90;;;3.50;99.90;;;;;;4986418;28;20038;-81
2021/12/10 09:41:57;;;;;;;15.93;9.32;;;3.50;99.90;;;;;;4977598;28;20067;-80
2021/12/10 09:44:24;;;;;;;17.08;8.80;;;3.50;99.90;;;;;;5002235;28;20382;-81
2021/12/10 09:46:52;;;;;;;17.02;8.90;;;3.50;99.90;;;;;;4989485;28;20170;-79
2021/12/10 09:49:23;;;;;;;14.80;9.05;;;3.60;99.90;;;;;;4981113;28;20174;-81
2021/12/10 09:51:53;;;;;;;13.10;8.02;;;3.60;99.90;;;;;;4980872;28;20068;-80
2021/12/10 09:54:22;;;;;;;15.07;8.60;;;3.70;99.90;;;;;;4988807;28;20049;-80
2021/12/10 09:56:55;;;;;;;14.00;7.95;;;3.70;99.90;;;;;;4988123;28;20126;-80
2021/12/10 09:59:22;;;;;;;11.37;7.13;;;4.10;99.90;;;;;;4964961;28;20375;-81
2021/12/10 10:01:52;;;;;;;14.50;8.20;;;3.80;99.90;;;;;;5000249;28;20037;-81
2021/12/10 10:04:20;;;;;;;13.65;7.05;;;3.80;99.90;;;;;;4991463;28;20045;-81
2021/12/10 10:06:57;;;;;;;14.32;8.48;;;3.90;99.90;;;;;;4998586;28;20136;-81
2021/12/10 10:09:24;;;;;;;11.48;7.05;;;4.00;99.90;;;;;;4999760;28;20121;-81
2021/12/10 10:12:04;;;;;;;12.82;7.82;;;4.00;99.90;;;;;;4971211;28;20030;-82
2021/12/10 10:14:30;;;;;;;14.35;7.95;;;4.30;99.90;;;;;;5011264;28;23637;-83
2021/12/10 10:16:56;;;;;;;17.60;7.15;;;4.40;99.90;;;;;;4991017;28;20041;-82
2021/12/10 10:19:23;;;;;;;11.25;7.45;;;4.00;99.90;;;;;;4998028;28;20033;-82
2021/12/10 10:21:53;;;;;;;11.18;7.13;;;4.60;99.90;;;;;;4990322;28;20034;-82
2021/12/10 10:24:20;;;;;;;11.07;6.50;;;4.50;99.90;;;;;;4996047;28;20303;-80
2021/12/10 10:26:54;;;;;;;12.35;6.93;;;4.20;99.90;;;;;;4992629;28;20034;-83
2021/12/10 10:29:22;;;;;;;11.60;7.40;;;4.40;99.90;;;;;;4991737;28;20470;-80
2021/12/10 10:31:56;;;;;;;10.75;6.30;;;4.40;99.90;;;;;;4989346;28;20079;-82
2021/12/10 10:34:25;;;;;;;11.20;7.57;;;4.50;99.90;;;;;;5011026;28;20037;-81
2021/12/10 10:36:51;;;;;;;12.88;7.50;;;4.50;99.90;;;;;;4983566;28;20092;-78
2021/12/10 10:39:24;;;;;;;11.65;6.60;;;5.00;99.90;;;;;;4996008;28;20417;-80
2021/12/10 10:41:55;;;;;;;12.80;6.97;;;4.70;99.90;;;;;;4991734;28;20426;-79
2021/12/10 10:44:23;;;;;;;9.45;6.35;;;4.70;99.90;;;;;;4999249;28;20048;-80
2021/12/10 10:46:54;;;;;;;11.25;6.22;;;4.80;99.90;;;;;;5012380;28;20091;-81
2021/12/10 10:49:46;;;;;;;10.23;6.15;;;4.70;99.90;;;;;;5008166;28;20034;-80
2021/12/10 10:52:31;;;;;;;11.25;6.60;;;4.70;99.90;;;;;;5009992;28;20093;-80
2021/12/10 10:55:12;;;;;;;11.13;5.68;;;4.70;99.90;;;;;;4991866;28;20052;-80
2021/12/10 10:57:53;;;;;;;10.95;6.03;;;4.70;99.90;;;;;;5008565;28;20044;-80
2021/12/10 11:00:29;;;;;;;12.60;6.22;;;4.80;99.90;;;;;;4999392;28;20042;-80
2021/12/10 11:03:03;;;;;;;8.75;5.68;;;4.80;99.90;;;;;;4997270;28;20064;-81
2021/12/10 11:05:30;;;;;;;10.70;6.22;;;4.80;99.90;;;;;;5008294;28;20037;-82
2021/12/10 11:08:03;;;;;;;11.13;6.00;;;4.80;99.90;;;;;;5010302;28;20044;-81
2021/12/10 11:10:34;;;;;;;12.00;5.80;;;4.80;99.90;;;;;;5016221;28;20060;-81
2021/12/10 11:13:21;;;;;;;9.65;6.40;;;5.20;99.90;;;;;;4997417;28;20029;-81
2021/12/10 11:16:22;;;;;;;12.95;5.65;;;4.90;99.90;;;;;;4992372;28;20069;-82
2021/12/10 11:18:55;;;;;;;11.30;5.80;;;4.90;99.90;;;;;;4996543;28;20045;-81
2021/12/10 11:21:42;;;;;;;14.57;5.95;;;5.00;99.90;;;;;;5007930;28;20552;-81
2021/12/10 11:24:16;;;;;;;10.25;5.78;;;5.10;99.90;;;;;;5010783;28;20072;-80
2021/12/10 11:26:52;;;;;;;8.43;5.55;;;5.50;99.90;;;;;;5027330;28;20037;-81
2021/12/10 11:29:30;;;;;;;8.52;4.88;;;5.60;99.90;;;;;;5023599;28;20585;-80
2021/12/10 11:32:01;;;;;;;9.57;5.50;;;5.20;99.90;;;;;;4997517;28;20117;-82
2021/12/10 11:34:50;;;;;;;11.13;5.50;;;5.20;99.90;;;;;;5002990;28;20485;-82
2021/12/10 11:37:37;;;;;;;8.50;5.00;;;5.20;99.90;;;;;;5013271;28;20072;-80
2021/12/10 11:40:08;;;;;;;9.45;5.30;;;5.60;99.90;;;;;;5004261;28;20048;-80
2021/12/10 11:42:46;;;;;;;10.40;5.05;;;5.40;99.90;;;;;;5018483;28;20038;-80
2021/12/10 11:45:32;;;;;;;10.95;6.28;;;5.50;99.90;;;;;;5010781;28;20042;-80
2021/12/10 11:48:12;;;;;;;9.82;5.30;;;5.70;99.90;;;;;;4996665;28;20041;-81
2021/12/10 11:50:44;;;;;;;11.88;5.65;;;5.60;99.90;;;;;;4985762;28;20128;-79
2021/12/10 11:53:16;;;;;;;10.00;5.18;;;5.60;99.90;;;;;;5010637;28;20054;-80
2021/12/10 11:56:01;;;;;;;10.07;5.72;;;5.60;99.90;;;;;;5017149;28;20041;-80
2021/12/10 11:58:27;;;;;;;7.90;4.80;;;5.60;99.90;;;;;;4992953;28;20174;-80
2021/12/10 12:00:54;;;;;;;7.63;4.88;;;5.70;99.90;;;;;;4995796;28;20064;-81
2021/12/10 12:03:23;;;;;;;10.88;5.13;;;5.60;99.90;;;;;;4982265;28;20052;-81
2021/12/10 12:05:50;;;;;;;9.70;4.38;;;5.90;99.90;;;;;;4976588;28;20040;-80
2021/12/10 12:08:19;;;;;;;9.05;4.78;;;6.10;99.90;;;;;;4985054;28;20054;-80
2021/12/10 12:10:48;;;;;;;8.70;4.88;;;6.00;99.90;;;;;;4982800;28;20033;-82
2021/12/10 12:13:35;;;;;;;9.45;5.22;;;6.10;99.90;;;;;;4992752;28;20045;-81
2021/12/10 12:16:14;;;;;;;11.98;4.68;;;5.70;99.90;;;;;;4982184;28;20595;-81
2021/12/10 12:18:52;;;;;;;9.68;4.68;;;5.70;99.90;;;;;;5008677;28;20402;-81
2021/12/10 12:27:12;;;;;;;8.75;4.55;;;5.80;99.90;;;;;;4999424;28;20045;-81
2021/12/10 12:29:46;;;;;;;10.70;4.65;;;5.80;99.90;;;;;;4978798;28;20045;-80
2021/12/10 12:32:24;;;;;;;12.43;4.47;;;5.80;99.90;;;;;;4974241;28;20061;-82
2021/12/10 12:34:51;;;;;;;11.38;5.00;;;5.70;99.90;;;;;;5003837;28;20409;-81
2021/12/10 12:37:20;;;;;;;10.15;5.05;;;5.70;99.90;;;;;;4991545;28;20050;-81
2021/12/10 12:39:56;;;;;;;8.73;4.68;;;5.90;99.90;;;;;;4988050;28;20061;-82
2021/12/10 12:42:35;;;;;;;10.75;4.88;;;5.60;99.90;;;;;;5016974;28;20052;-80
2021/12/10 12:45:11;;;;;;;8.88;5.40;;;5.60;99.90;;;;;;4995734;28;20044;-82
2021/12/10 12:47:42;;;;;;;9.55;4.95;;;5.60;99.90;;;;;;4989003;28;20041;-81
2021/12/10 12:50:16;;;;;;;8.90;4.88;;;5.90;99.90;;;;;;4998173;28;20064;-81
2021/12/10 12:52:55;;;;;;;8.25;4.38;;;5.60;99.90;;;;;;5002549;28;20588;-81
2021/12/10 12:55:40;;;;;;;7.75;4.70;;;5.60;99.90;;;;;;4987816;28;20037;-81
2021/12/10 12:58:27;;;;;;;7.43;4.38;;;5.60;99.90;;;;;;5009741;28;20041;-80
2021/12/10 13:01:19;;;;;;;8.90;4.75;;;5.50;99.90;;;;;;4984540;28;20053;-81
2021/12/10 13:03:54;;;;;;;8.63;4.45;;;5.50;99.90;;;;;;4999464;23;20045;-56
2021/12/10 13:06:22;;;;;;;8.80;4.53;;;5.40;99.90;;;;;;4987721;28;20064;-57